createdAt,value
2023-02-27T00:24:49.933Z,-0.5
2023-02-27T00:53:22.111Z,-0.09
2023-02-27T01:21:59.328Z,-0.21
2023-02-27T01:50:32.212Z,-0.37
2023-02-27T02:19:08.849Z,-0.97
2023-02-27T02:47:45.332Z,-1.01
2023-02-27T03:16:23.897Z,-0.93
2023-02-27T03:45:05.413Z,-1.2
2023-02-27T04:13:14.461Z,-1.31
2023-02-27T04:41:50.947Z,-1.41
2023-02-27T05:10:13.278Z,-1.52
2023-02-27T05:38:48.399Z,-1.69
2023-02-27T06:07:18.566Z,-1.94
2023-02-27T06:35:36.386Z,-1.98
2023-02-27T07:04:08.099Z,-1.89
2023-02-27T07:32:26.020Z,-1.39
2023-02-27T08:01:18.503Z,6.28
2023-02-27T08:30:05.987Z,5.6
2023-02-27T08:58:18.593Z,2.77
2023-02-27T09:26:47.599Z,2.93
2023-02-27T09:54:58.339Z,3.07
2023-02-27T10:23:26.266Z,4.05
2023-02-27T10:52:07.875Z,4.38
2023-02-27T11:20:41.220Z,4.88
2023-02-27T11:49:22.166Z,5.23
2023-02-27T12:17:43.521Z,5.74
2023-02-27T12:46:15.920Z,5.05
2023-02-27T13:14:52.149Z,5.58
2023-02-27T13:51:45.462Z,5.32
2023-02-27T14:18:54.072Z,5.13
2023-02-27T14:47:16.077Z,4.65
2023-02-27T15:16:17.840Z,4.49
2023-02-27T15:44:16.018Z,4.31
2023-02-27T16:12:43.298Z,4.26
2023-02-27T16:40:57.415Z,3.79
2023-02-27T17:09:14.737Z,3.55
2023-02-27T17:37:40.185Z,3.33
2023-02-27T18:06:29.885Z,3.05
2023-02-27T18:34:56.643Z,2.46
2023-02-27T19:03:34.768Z,2.44
2023-02-27T19:31:51.865Z,2.3
2023-02-27T20:00:42.952Z,1.93
2023-02-27T20:31:37.045Z,1.65
2023-02-27T20:59:47.859Z,1.42
2023-02-27T21:56:47.757Z,0.97
2023-02-27T22:25:16.957Z,0.79
2023-02-27T22:54:17.047Z,0.41
2023-02-27T23:22:30.869Z,0.32
2023-02-27T23:51:13.510Z,-0.03
